sensor_id;sensor_type;location;lat;lon;timestamp;P1;durP1;ratioP1;P2;durP2;ratioP2
11328;SDS011;5719;42.714;23.732;2022-10-19T00:00:33;9.73;;;4.63;;
11328;SDS011;5719;42.714;23.732;2022-10-19T00:03:00;9.93;;;4.32;;
11328;SDS011;5719;42.714;23.732;2022-10-19T00:05:27;5.38;;;4.18;;
11328;SDS011;5719;42.714;23.732;2022-10-19T00:07:54;7.78;;;4.32;;
11328;SDS011;5719;42.714;23.732;2022-10-19T00:10:21;11.30;;;5.50;;
11328;SDS011;5719;42.714;23.732;2022-10-19T00:12:47;9.75;;;4.40;;
11328;SDS011;5719;42.714;23.732;2022-10-19T00:15:16;10.43;;;5.47;;
11328;SDS011;5719;42.714;23.732;2022-10-19T00:17:43;11.90;;;5.00;;
11328;SDS011;5719;42.714;23.732;2022-10-19T00:20:10;12.43;;;5.65;;
11328;SDS011;5719;42.714;23.732;2022-10-19T00:22:38;15.38;;;5.95;;
11328;SDS011;5719;42.714;23.732;2022-10-19T00:25:05;10.00;;;5.13;;
11328;SDS011;5719;42.714;23.732;2022-10-19T00:27:32;9.45;;;4.43;;
11328;SDS011;5719;42.714;23.732;2022-10-19T00:29:59;7.07;;;4.28;;
11328;SDS011;5719;42.714;23.732;2022-10-19T00:32:28;6.43;;;4.28;;
11328;SDS011;5719;42.714;23.732;2022-10-19T00:34:54;11.82;;;4.78;;
11328;SDS011;5719;42.714;23.732;2022-10-19T00:37:21;9.98;;;4.47;;
11328;SDS011;5719;42.714;23.732;2022-10-19T00:39:48;8.68;;;4.75;;
11328;SDS011;5719;42.714;23.732;2022-10-19T00:42:15;6.25;;;4.35;;
11328;SDS011;5719;42.714;23.732;2022-10-19T00:44:59;4.38;;;3.72;;
11328;SDS011;5719;42.714;23.732;2022-10-19T00:47:30;6.43;;;3.83;;
11328;SDS011;5719;42.714;23.732;2022-10-19T00:49:57;9.13;;;4.05;;
11328;SDS011;5719;42.714;23.732;2022-10-19T00:52:25;6.20;;;4.28;;
11328;SDS011;5719;42.714;23.732;2022-10-19T00:54:53;6.95;;;3.85;;
11328;SDS011;5719;42.714;23.732;2022-10-19T00:57:21;5.70;;;4.05;;
11328;SDS011;5719;42.714;23.732;2022-10-19T00:59:51;6.03;;;3.75;;
11328;SDS011;5719;42.714;23.732;2022-10-19T01:02:18;7.18;;;4.43;;
11328;SDS011;5719;42.714;23.732;2022-10-19T01:04:47;7.53;;;4.57;;
11328;SDS011;5719;42.714;23.732;2022-10-19T01:07:17;4.88;;;4.30;;
11328;SDS011;5719;42.714;23.732;2022-10-19T01:09:44;6.90;;;4.13;;
11328;SDS011;5719;42.714;23.732;2022-10-19T01:12:14;4.85;;;3.25;;
11328;SDS011;5719;42.714;23.732;2022-10-19T01:14:54;10.40;;;5.70;;
11328;SDS011;5719;42.714;23.732;2022-10-19T01:17:33;15.65;;;7.45;;
11328;SDS011;5719;42.714;23.732;2022-10-19T01:20:27;18.70;;;8.95;;
11328;SDS011;5719;42.714;23.732;2022-10-19T01:23:17;22.55;;;10.32;;
11328;SDS011;5719;42.714;23.732;2022-10-19T01:26:01;24.98;;;10.30;;
11328;SDS011;5719;42.714;23.732;2022-10-19T01:28:43;20.33;;;8.88;;
11328;SDS011;5719;42.714;23.732;2022-10-19T01:31:18;17.92;;;8.57;;
11328;SDS011;5719;42.714;23.732;2022-10-19T01:33:53;19.92;;;9.32;;
11328;SDS011;5719;42.714;23.732;2022-10-19T01:36:30;16.63;;;8.10;;
11328;SDS011;5719;42.714;23.732;2022-10-19T01:39:07;16.23;;;7.25;;
11328;SDS011;5719;42.714;23.732;2022-10-19T01:41:41;11.15;;;5.72;;
11328;SDS011;5719;42.714;23.732;2022-10-19T01:44:13;9.10;;;5.40;;
11328;SDS011;5719;42.714;23.732;2022-10-19T01:46:50;14.85;;;4.93;;
11328;SDS011;5719;42.714;23.732;2022-10-19T01:49:21;8.30;;;5.63;;
11328;SDS011;5719;42.714;23.732;2022-10-19T01:51:55;8.32;;;5.22;;
11328;SDS011;5719;42.714;23.732;2022-10-19T01:54:25;6.45;;;4.60;;
11328;SDS011;5719;42.714;23.732;2022-10-19T01:56:55;7.47;;;4.63;;
11328;SDS011;5719;42.714;23.732;2022-10-19T01:59:23;6.68;;;4.63;;
11328;SDS011;5719;42.714;23.732;2022-10-19T02:01:53;8.55;;;5.03;;
11328;SDS011;5719;42.714;23.732;2022-10-19T02:04:21;9.05;;;4.38;;
11328;SDS011;5719;42.714;23.732;2022-10-19T02:06:51;9.23;;;4.20;;
11328;SDS011;5719;42.714;23.732;2022-10-19T02:09:19;7.82;;;4.88;;
11328;SDS011;5719;42.714;23.732;2022-10-19T02:11:46;7.72;;;4.68;;
11328;SDS011;5719;42.714;23.732;2022-10-19T02:14:16;8.95;;;4.70;;
11328;SDS011;5719;42.714;23.732;2022-10-19T02:16:50;6.57;;;4.63;;
11328;SDS011;5719;42.714;23.732;2022-10-19T02:19:22;9.63;;;4.63;;
11328;SDS011;5719;42.714;23.732;2022-10-19T02:21:49;8.80;;;4.22;;
11328;SDS011;5719;42.714;23.732;2022-10-19T02:24:17;6.68;;;5.00;;
11328;SDS011;5719;42.714;23.732;2022-10-19T02:26:44;6.65;;;4.30;;
11328;SDS011;5719;42.714;23.732;2022-10-19T02:29:11;6.97;;;4.53;;
11328;SDS011;5719;42.714;23.732;2022-10-19T02:31:40;6.05;;;4.22;;
11328;SDS011;5719;42.714;23.732;2022-10-19T02:34:09;5.22;;;4.20;;
11328;SDS011;5719;42.714;23.732;2022-10-19T02:36:37;10.05;;;5.72;;
11328;SDS011;5719;42.714;23.732;2022-10-19T02:39:04;11.57;;;5.47;;
11328;SDS011;5719;42.714;23.732;2022-10-19T02:41:33;9.95;;;6.00;;
11328;SDS011;5719;42.714;23.732;2022-10-19T02:44:04;8.25;;;5.15;;
11328;SDS011;5719;42.714;23.732;2022-10-19T02:46:36;13.88;;;6.72;;
11328;SDS011;5719;42.714;23.732;2022-10-19T02:49:09;13.75;;;5.70;;
11328;SDS011;5719;42.714;23.732;2022-10-19T02:51:39;9.63;;;5.63;;
11328;SDS011;5719;42.714;23.732;2022-10-19T02:54:20;12.25;;;5.63;;
11328;SDS011;5719;42.714;23.732;2022-10-19T02:56:47;9.43;;;5.72;;
11328;SDS011;5719;42.714;23.732;2022-10-19T02:59:13;13.20;;;5.72;;
11328;SDS011;5719;42.714;23.732;2022-10-19T03:01:40;15.10;;;6.22;;
11328;SDS011;5719;42.714;23.732;2022-10-19T03:04:07;9.75;;;5.85;;
11328;SDS011;5719;42.714;23.732;2022-10-19T03:06:35;14.70;;;7.60;;
11328;SDS011;5719;42.714;23.732;2022-10-19T03:09:02;14.82;;;6.82;;
11328;SDS011;5719;42.714;23.732;2022-10-19T03:11:29;9.73;;;6.20;;
11328;SDS011;5719;42.714;23.732;2022-10-19T03:13:56;9.80;;;5.78;;
11328;SDS011;5719;42.714;23.732;2022-10-19T03:16:23;8.98;;;5.07;;
11328;SDS011;5719;42.714;23.732;2022-10-19T03:18:50;6.75;;;4.80;;
11328;SDS011;5719;42.714;23.732;2022-10-19T03:21:17;7.10;;;5.00;;
11328;SDS011;5719;42.714;23.732;2022-10-19T03:23:46;13.43;;;5.72;;
11328;SDS011;5719;42.714;23.732;2022-10-19T03:26:13;12.88;;;5.25;;
11328;SDS011;5719;42.714;23.732;2022-10-19T03:28:42;10.63;;;6.00;;
11328;SDS011;5719;42.714;23.732;2022-10-19T03:31:09;12.02;;;7.13;;
11328;SDS011;5719;42.714;23.732;2022-10-19T03:33:36;14.27;;;6.10;;
11328;SDS011;5719;42.714;23.732;2022-10-19T03:36:13;10.18;;;5.72;;
11328;SDS011;5719;42.714;23.732;2022-10-19T03:53:44;8.48;;;5.50;;
11328;SDS011;5719;42.714;23.732;2022-10-19T03:56:12;8.45;;;5.40;;
11328;SDS011;5719;42.714;23.732;2022-10-19T03:58:41;8.82;;;5.15;;
11328;SDS011;5719;42.714;23.732;2022-10-19T04:07:52;11.70;;;4.90;;
11328;SDS011;5719;42.714;23.732;2022-10-19T04:10:20;10.52;;;5.45;;
11328;SDS011;5719;42.714;23.732;2022-10-19T04:12:47;12.57;;;6.03;;
11328;SDS011;5719;42.714;23.732;2022-10-19T04:15:15;8.60;;;5.47;;
11328;SDS011;5719;42.714;23.732;2022-10-19T04:17:42;9.65;;;5.90;;
11328;SDS011;5719;42.714;23.732;2022-10-19T04:20:09;16.08;;;5.65;;
11328;SDS011;5719;42.714;23.732;2022-10-19T04:22:36;9.60;;;4.78;;
11328;SDS011;5719;42.714;23.732;2022-10-19T04:25:03;8.02;;;5.30;;
11328;SDS011;5719;42.714;23.732;2022-10-19T04:27:33;12.15;;;5.55;;
11328;SDS011;5719;42.714;23.732;2022-10-19T04:29:59;10.55;;;5.35;;
11328;SDS011;5719;42.714;23.732;2022-10-19T04:32:26;8.85;;;4.90;;
11328;SDS011;5719;42.714;23.732;2022-10-19T04:34:53;9.63;;;5.10;;
11328;SDS011;5719;42.714;23.732;2022-10-19T04:37:20;10.18;;;4.63;;
11328;SDS011;5719;42.714;23.732;2022-10-19T04:39:47;8.45;;;5.13;;
11328;SDS011;5719;42.714;23.732;2022-10-19T04:42:13;12.35;;;5.15;;
11328;SDS011;5719;42.714;23.732;2022-10-19T04:44:42;8.50;;;4.82;;
11328;SDS011;5719;42.714;23.732;2022-10-19T04:47:08;10.88;;;5.18;;
11328;SDS011;5719;42.714;23.732;2022-10-19T04:49:35;11.20;;;5.07;;
11328;SDS011;5719;42.714;23.732;2022-10-19T04:52:02;29.48;;;6.07;;
11328;SDS011;5719;42.714;23.732;2022-10-19T04:54:29;14.60;;;4.93;;
11328;SDS011;5719;42.714;23.732;2022-10-19T04:56:56;10.73;;;4.68;;
11328;SDS011;5719;42.714;23.732;2022-10-19T04:59:23;13.02;;;5.60;;
11328;SDS011;5719;42.714;23.732;2022-10-19T05:01:51;7.95;;;5.10;;
11328;SDS011;5719;42.714;23.732;2022-10-19T05:04:18;12.07;;;5.05;;
11328;SDS011;5719;42.714;23.732;2022-10-19T05:06:45;13.43;;;5.55;;
11328;SDS011;5719;42.714;23.732;2022-10-19T05:09:11;15.40;;;5.70;;
11328;SDS011;5719;42.714;23.732;2022-10-19T05:11:38;12.30;;;4.85;;
11328;SDS011;5719;42.714;23.732;2022-10-19T05:14:05;11.27;;;5.05;;
11328;SDS011;5719;42.714;23.732;2022-10-19T05:16:32;11.00;;;4.93;;
11328;SDS011;5719;42.714;23.732;2022-10-19T05:35:11;9.80;;;4.50;;
11328;SDS011;5719;42.714;23.732;2022-10-19T05:37:38;8.25;;;4.63;;
11328;SDS011;5719;42.714;23.732;2022-10-19T05:40:06;5.75;;;4.38;;
11328;SDS011;5719;42.714;23.732;2022-10-19T05:42:33;7.53;;;4.50;;
11328;SDS011;5719;42.714;23.732;2022-10-19T05:45:00;8.48;;;4.60;;
11328;SDS011;5719;42.714;23.732;2022-10-19T05:47:27;7.13;;;4.50;;
11328;SDS011;5719;42.714;23.732;2022-10-19T05:49:54;10.38;;;4.75;;
11328;SDS011;5719;42.714;23.732;2022-10-19T05:52:22;13.73;;;4.90;;
11328;SDS011;5719;42.714;23.732;2022-10-19T05:54:49;6.70;;;4.75;;
11328;SDS011;5719;42.714;23.732;2022-10-19T05:57:18;9.43;;;4.80;;
11328;SDS011;5719;42.714;23.732;2022-10-19T05:59:44;10.10;;;5.07;;
11328;SDS011;5719;42.714;23.732;2022-10-19T06:02:11;7.90;;;4.70;;
11328;SDS011;5719;42.714;23.732;2022-10-19T06:04:38;9.05;;;4.50;;
11328;SDS011;5719;42.714;23.732;2022-10-19T06:07:05;7.53;;;4.70;;
11328;SDS011;5719;42.714;23.732;2022-10-19T06:09:34;9.05;;;4.80;;
11328;SDS011;5719;42.714;23.732;2022-10-19T06:12:01;11.82;;;4.90;;
11328;SDS011;5719;42.714;23.732;2022-10-19T06:14:28;8.30;;;4.80;;
11328;SDS011;5719;42.714;23.732;2022-10-19T06:16:55;9.55;;;4.60;;
11328;SDS011;5719;42.714;23.732;2022-10-19T06:19:22;6.57;;;4.72;;
11328;SDS011;5719;42.714;23.732;2022-10-19T06:21:49;11.13;;;4.05;;
11328;SDS011;5719;42.714;23.732;2022-10-19T06:24:16;9.75;;;5.13;;
11328;SDS011;5719;42.714;23.732;2022-10-19T06:26:44;8.50;;;4.65;;
11328;SDS011;5719;42.714;23.732;2022-10-19T06:29:11;10.18;;;4.55;;
11328;SDS011;5719;42.714;23.732;2022-10-19T06:31:38;10.00;;;4.78;;
11328;SDS011;5719;42.714;23.732;2022-10-19T06:34:04;10.20;;;4.82;;
11328;SDS011;5719;42.714;23.732;2022-10-19T06:36:31;6.75;;;4.80;;
11328;SDS011;5719;42.714;23.732;2022-10-19T06:38:59;7.97;;;4.60;;
11328;SDS011;5719;42.714;23.732;2022-10-19T06:41:26;8.70;;;5.22;;
11328;SDS011;5719;42.714;23.732;2022-10-19T06:43:55;8.48;;;5.47;;
11328;SDS011;5719;42.714;23.732;2022-10-19T06:46:22;10.07;;;4.82;;
11328;SDS011;5719;42.714;23.732;2022-10-19T06:48:51;6.93;;;4.90;;
11328;SDS011;5719;42.714;23.732;2022-10-19T06:54:33;9.23;;;4.88;;
11328;SDS011;5719;42.714;23.732;2022-10-19T06:57:00;8.35;;;4.75;;
11328;SDS011;5719;42.714;23.732;2022-10-19T06:59:29;8.50;;;5.22;;
11328;SDS011;5719;42.714;23.732;2022-10-19T07:01:55;7.75;;;5.20;;
11328;SDS011;5719;42.714;23.732;2022-10-19T07:04:22;11.27;;;5.18;;
11328;SDS011;5719;42.714;23.732;2022-10-19T07:06:49;8.13;;;4.50;;
11328;SDS011;5719;42.714;23.732;2022-10-19T07:09:16;14.32;;;5.30;;
11328;SDS011;5719;42.714;23.732;2022-10-19T07:11:43;9.18;;;4.90;;
11328;SDS011;5719;42.714;23.732;2022-10-19T07:14:10;11.50;;;5.45;;
11328;SDS011;5719;42.714;23.732;2022-10-19T07:16:39;6.88;;;4.93;;
11328;SDS011;5719;42.714;23.732;2022-10-19T07:19:06;9.27;;;5.00;;
11328;SDS011;5719;42.714;23.732;2022-10-19T07:21:33;8.10;;;5.30;;
11328;SDS011;5719;42.714;23.732;2022-10-19T07:24:05;9.82;;;5.20;;
11328;SDS011;5719;42.714;23.732;2022-10-19T07:26:31;9.82;;;4.82;;
11328;SDS011;5719;42.714;23.732;2022-10-19T07:28:59;15.63;;;5.40;;
11328;SDS011;5719;42.714;23.732;2022-10-19T07:31:27;10.63;;;4.70;;
11328;SDS011;5719;42.714;23.732;2022-10-19T07:33:57;11.15;;;5.18;;
11328;SDS011;5719;42.714;23.732;2022-10-19T07:36:25;6.72;;;4.45;;
11328;SDS011;5719;42.714;23.732;2022-10-19T07:38:53;8.73;;;4.50;;
11328;SDS011;5719;42.714;23.732;2022-10-19T07:41:21;8.55;;;5.22;;
11328;SDS011;5719;42.714;23.732;2022-10-19T07:43:49;11.85;;;5.53;;
11328;SDS011;5719;42.714;23.732;2022-10-19T07:46:18;7.95;;;4.72;;
11328;SDS011;5719;42.714;23.732;2022-10-19T07:48:46;11.65;;;5.28;;
11328;SDS011;5719;42.714;23.732;2022-10-19T07:51:15;13.00;;;5.18;;
11328;SDS011;5719;42.714;23.732;2022-10-19T07:53:43;9.13;;;4.88;;
11328;SDS011;5719;42.714;23.732;2022-10-19T07:56:11;9.95;;;5.18;;
11328;SDS011;5719;42.714;23.732;2022-10-19T07:58:40;11.27;;;4.72;;
11328;SDS011;5719;42.714;23.732;2022-10-19T08:01:08;14.05;;;5.50;;
11328;SDS011;5719;42.714;23.732;2022-10-19T08:03:36;10.70;;;5.90;;
11328;SDS011;5719;42.714;23.732;2022-10-19T08:06:04;7.63;;;5.30;;
11328;SDS011;5719;42.714;23.732;2022-10-19T08:08:34;9.77;;;5.00;;
11328;SDS011;5719;42.714;23.732;2022-10-19T08:11:05;17.17;;;5.65;;
11328;SDS011;5719;42.714;23.732;2022-10-19T08:13:32;9.80;;;5.05;;
11328;SDS011;5719;42.714;23.732;2022-10-19T08:15:59;14.38;;;5.38;;
11328;SDS011;5719;42.714;23.732;2022-10-19T08:18:27;9.23;;;5.50;;
11328;SDS011;5719;42.714;23.732;2022-10-19T08:20:55;12.63;;;5.03;;
11328;SDS011;5719;42.714;23.732;2022-10-19T08:23:22;8.50;;;4.80;;
11328;SDS011;5719;42.714;23.732;2022-10-19T08:25:50;11.02;;;5.15;;
11328;SDS011;5719;42.714;23.732;2022-10-19T08:28:17;12.57;;;5.28;;
11328;SDS011;5719;42.714;23.732;2022-10-19T08:30:44;24.80;;;6.13;;
11328;SDS011;5719;42.714;23.732;2022-10-19T08:33:11;19.45;;;5.57;;
11328;SDS011;5719;42.714;23.732;2022-10-19T08:35:39;14.80;;;5.25;;
11328;SDS011;5719;42.714;23.732;2022-10-19T08:38:06;9.77;;;5.25;;
11328;SDS011;5719;42.714;23.732;2022-10-19T08:40:33;9.35;;;4.97;;
11328;SDS011;5719;42.714;23.732;2022-10-19T08:43:03;16.50;;;5.28;;
11328;SDS011;5719;42.714;23.732;2022-10-19T08:45:38;15.05;;;5.18;;
11328;SDS011;5719;42.714;23.732;2022-10-19T08:48:21;13.88;;;4.82;;
11328;SDS011;5719;42.714;23.732;2022-10-19T08:50:53;11.95;;;5.00;;
11328;SDS011;5719;42.714;23.732;2022-10-19T08:53:22;13.02;;;5.20;;
11328;SDS011;5719;42.714;23.732;2022-10-19T08:55:56;28.30;;;5.82;;
11328;SDS011;5719;42.714;23.732;2022-10-19T08:58:38;13.40;;;4.97;;
11328;SDS011;5719;42.714;23.732;2022-10-19T09:01:17;6.95;;;4.90;;
11328;SDS011;5719;42.714;23.732;2022-10-19T09:03:55;14.48;;;4.70;;
11328;SDS011;5719;42.714;23.732;2022-10-19T09:06:28;11.77;;;4.88;;
11328;SDS011;5719;42.714;23.732;2022-10-19T09:09:00;20.23;;;5.95;;
11328;SDS011;5719;42.714;23.732;2022-10-19T09:11:27;16.42;;;5.20;;
11328;SDS011;5719;42.714;23.732;2022-10-19T09:14:02;10.77;;;4.75;;
11328;SDS011;5719;42.714;23.732;2022-10-19T09:16:36;14.45;;;5.05;;
11328;SDS011;5719;42.714;23.732;2022-10-19T09:19:04;16.80;;;5.10;;
11328;SDS011;5719;42.714;23.732;2022-10-19T09:21:39;11.10;;;4.85;;
11328;SDS011;5719;42.714;23.732;2022-10-19T09:24:12;8.27;;;4.70;;
11328;SDS011;5719;42.714;23.732;2022-10-19T09:26:50;15.60;;;5.10;;
11328;SDS011;5719;42.714;23.732;2022-10-19T09:29:23;15.05;;;4.50;;
11328;SDS011;5719;42.714;23.732;2022-10-19T09:31:54;11.45;;;4.47;;
11328;SDS011;5719;42.714;23.732;2022-10-19T09:34:24;12.82;;;4.10;;
11328;SDS011;5719;42.714;23.732;2022-10-19T09:36:55;9.27;;;4.15;;
11328;SDS011;5719;42.714;23.732;2022-10-19T09:39:24;13.65;;;4.25;;
11328;SDS011;5719;42.714;23.732;2022-10-19T09:41:53;16.30;;;4.53;;
11328;SDS011;5719;42.714;23.732;2022-10-19T09:44:22;8.57;;;3.85;;
11328;SDS011;5719;42.714;23.732;2022-10-19T09:46:52;11.82;;;4.53;;
11328;SDS011;5719;42.714;23.732;2022-10-19T09:49:37;13.55;;;4.00;;
11328;SDS011;5719;42.714;23.732;2022-10-19T09:52:13;10.95;;;3.92;;
11328;SDS011;5719;42.714;23.732;2022-10-19T09:54:49;13.20;;;4.20;;
11328;SDS011;5719;42.714;23.732;2022-10-19T09:57:25;7.90;;;3.92;;
11328;SDS011;5719;42.714;23.732;2022-10-19T09:59:53;11.73;;;4.00;;
11328;SDS011;5719;42.714;23.732;2022-10-19T10:02:27;9.18;;;3.60;;
11328;SDS011;5719;42.714;23.732;2022-10-19T10:04:56;10.75;;;3.70;;
11328;SDS011;5719;42.714;23.732;2022-10-19T10:07:32;10.27;;;4.20;;
11328;SDS011;5719;42.714;23.732;2022-10-19T10:10:02;13.23;;;3.63;;
11328;SDS011;5719;42.714;23.732;2022-10-19T10:15:04;12.57;;;3.85;;
11328;SDS011;5719;42.714;23.732;2022-10-19T10:17:32;10.15;;;3.50;;
11328;SDS011;5719;42.714;23.732;2022-10-19T10:20:03;5.32;;;3.03;;
11328;SDS011;5719;42.714;23.732;2022-10-19T10:22:49;17.10;;;4.22;;
11328;SDS011;5719;42.714;23.732;2022-10-19T10:25:18;8.82;;;3.90;;
11328;SDS011;5719;42.714;23.732;2022-10-19T10:27:52;14.82;;;3.67;;
11328;SDS011;5719;42.714;23.732;2022-10-19T10:30:22;6.47;;;3.50;;
11328;SDS011;5719;42.714;23.732;2022-10-19T10:32:50;9.90;;;3.42;;
11328;SDS011;5719;42.714;23.732;2022-10-19T10:35:20;10.70;;;3.85;;
11328;SDS011;5719;42.714;23.732;2022-10-19T10:37:51;7.22;;;3.35;;
11328;SDS011;5719;42.714;23.732;2022-10-19T10:40:19;13.07;;;3.92;;
11328;SDS011;5719;42.714;23.732;2022-10-19T10:42:49;5.50;;;3.33;;
11328;SDS011;5719;42.714;23.732;2022-10-19T10:45:18;13.30;;;3.72;;
11328;SDS011;5719;42.714;23.732;2022-10-19T10:47:50;10.68;;;3.92;;
11328;SDS011;5719;42.714;23.732;2022-10-19T10:50:19;12.73;;;3.50;;
11328;SDS011;5719;42.714;23.732;2022-10-19T10:52:57;11.77;;;3.95;;
11328;SDS011;5719;42.714;23.732;2022-10-19T10:55:25;10.27;;;4.00;;
11328;SDS011;5719;42.714;23.732;2022-10-19T10:58:03;5.50;;;3.35;;
11328;SDS011;5719;42.714;23.732;2022-10-19T11:00:40;7.13;;;3.65;;
11328;SDS011;5719;42.714;23.732;2022-10-19T11:03:11;6.15;;;3.28;;
11328;SDS011;5719;42.714;23.732;2022-10-19T11:05:44;6.57;;;3.30;;
11328;SDS011;5719;42.714;23.732;2022-10-19T11:08:17;8.30;;;3.30;;
11328;SDS011;5719;42.714;23.732;2022-10-19T11:10:50;6.65;;;3.35;;
11328;SDS011;5719;42.714;23.732;2022-10-19T11:13:25;5.57;;;3.08;;
11328;SDS011;5719;42.714;23.732;2022-10-19T11:15:57;7.15;;;3.28;;
11328;SDS011;5719;42.714;23.732;2022-10-19T11:18:31;6.65;;;3.35;;
11328;SDS011;5719;42.714;23.732;2022-10-19T11:21:04;8.57;;;3.58;;
11328;SDS011;5719;42.714;23.732;2022-10-19T11:26:26;7.10;;;3.00;;
11328;SDS011;5719;42.714;23.732;2022-10-19T11:29:13;4.28;;;2.72;;
11328;SDS011;5719;42.714;23.732;2022-10-19T11:31:50;8.43;;;2.90;;
11328;SDS011;5719;42.714;23.732;2022-10-19T11:37:14;5.57;;;2.53;;
11328;SDS011;5719;42.714;23.732;2022-10-19T11:39:52;10.65;;;3.15;;
11328;SDS011;5719;42.714;23.732;2022-10-19T11:42:33;10.50;;;2.95;;
11328;SDS011;5719;42.714;23.732;2022-10-19T11:45:18;9.25;;;2.90;;
11328;SDS011;5719;42.714;23.732;2022-10-19T11:47:59;9.70;;;3.28;;
11328;SDS011;5719;42.714;23.732;2022-10-19T11:50:43;7.82;;;2.53;;
11328;SDS011;5719;42.714;23.732;2022-10-19T11:53:15;5.40;;;2.60;;
11328;SDS011;5719;42.714;23.732;2022-10-19T11:55:50;8.70;;;2.63;;
11328;SDS011;5719;42.714;23.732;2022-10-19T11:58:26;9.38;;;2.83;;
11328;SDS011;5719;42.714;23.732;2022-10-19T12:01:02;4.88;;;2.72;;
11328;SDS011;5719;42.714;23.732;2022-10-19T12:03:42;6.20;;;2.60;;
11328;SDS011;5719;42.714;23.732;2022-10-19T12:06:26;8.10;;;2.28;;
11328;SDS011;5719;42.714;23.732;2022-10-19T12:09:03;8.57;;;2.78;;
11328;SDS011;5719;42.714;23.732;2022-10-19T12:11:51;10.25;;;2.83;;
11328;SDS011;5719;42.714;23.732;2022-10-19T12:14:29;4.20;;;2.80;;
11328;SDS011;5719;42.714;23.732;2022-10-19T12:16:58;4.05;;;2.50;;
11328;SDS011;5719;42.714;23.732;2022-10-19T12:19:33;3.13;;;2.42;;
11328;SDS011;5719;42.714;23.732;2022-10-19T12:22:06;5.00;;;2.38;;
11328;SDS011;5719;42.714;23.732;2022-10-19T12:24:40;8.32;;;2.40;;
11328;SDS011;5719;42.714;23.732;2022-10-19T12:27:09;5.20;;;2.28;;
11328;SDS011;5719;42.714;23.732;2022-10-19T12:29:39;6.00;;;2.72;;
11328;SDS011;5719;42.714;23.732;2022-10-19T12:32:09;5.22;;;2.40;;
11328;SDS011;5719;42.714;23.732;2022-10-19T12:34:40;7.00;;;2.28;;
11328;SDS011;5719;42.714;23.732;2022-10-19T12:37:17;10.35;;;3.70;;
11328;SDS011;5719;42.714;23.732;2022-10-19T12:39:52;8.60;;;2.53;;
11328;SDS011;5719;42.714;23.732;2022-10-19T12:42:26;3.08;;;2.80;;
11328;SDS011;5719;42.714;23.732;2022-10-19T12:45:08;3.60;;;2.33;;
11328;SDS011;5719;42.714;23.732;2022-10-19T12:50:57;5.28;;;2.45;;
11328;SDS011;5719;42.714;23.732;2022-10-19T12:53:29;10.40;;;2.58;;
11328;SDS011;5719;42.714;23.732;2022-10-19T12:56:00;3.28;;;2.58;;
11328;SDS011;5719;42.714;23.732;2022-10-19T12:58:30;7.47;;;2.65;;
11328;SDS011;5719;42.714;23.732;2022-10-19T13:01:02;4.45;;;2.35;;
11328;SDS011;5719;42.714;23.732;2022-10-19T13:03:32;6.40;;;2.90;;
11328;SDS011;5719;42.714;23.732;2022-10-19T13:06:01;10.25;;;2.60;;
11328;SDS011;5719;42.714;23.732;2022-10-19T13:08:36;6.03;;;2.80;;
11328;SDS011;5719;42.714;23.732;2022-10-19T13:11:08;5.43;;;2.60;;
11328;SDS011;5719;42.714;23.732;2022-10-19T13:13:51;11.02;;;2.90;;
11328;SDS011;5719;42.714;23.732;2022-10-19T13:19:21;6.68;;;2.90;;
11328;SDS011;5719;42.714;23.732;2022-10-19T13:28:17;6.68;;;3.63;;
11328;SDS011;5719;42.714;23.732;2022-10-19T13:31:14;8.68;;;3.38;;
11328;SDS011;5719;42.714;23.732;2022-10-19T13:33:49;4.28;;;3.50;;
11328;SDS011;5719;42.714;23.732;2022-10-19T13:36:18;7.80;;;3.35;;
11328;SDS011;5719;42.714;23.732;2022-10-19T13:38:47;7.32;;;3.88;;
11328;SDS011;5719;42.714;23.732;2022-10-19T13:41:43;4.70;;;3.65;;
11328;SDS011;5719;42.714;23.732;2022-10-19T13:44:17;6.18;;;3.80;;
11328;SDS011;5719;42.714;23.732;2022-10-19T13:50:11;6.35;;;3.33;;
11328;SDS011;5719;42.714;23.732;2022-10-19T13:53:10;5.18;;;3.10;;
11328;SDS011;5719;42.714;23.732;2022-10-19T13:55:49;5.63;;;2.72;;
11328;SDS011;5719;42.714;23.732;2022-10-19T14:01:37;6.57;;;2.42;;
11328;SDS011;5719;42.714;23.732;2022-10-19T14:04:18;6.07;;;2.60;;
11328;SDS011;5719;42.714;23.732;2022-10-19T14:06:51;8.82;;;2.58;;
11328;SDS011;5719;42.714;23.732;2022-10-19T14:09:25;6.15;;;2.60;;
11328;SDS011;5719;42.714;23.732;2022-10-19T14:12:06;14.63;;;2.80;;
11328;SDS011;5719;42.714;23.732;2022-10-19T14:14:38;4.53;;;2.92;;
11328;SDS011;5719;42.714;23.732;2022-10-19T14:17:14;6.10;;;2.78;;
11328;SDS011;5719;42.714;23.732;2022-10-19T14:19:44;6.10;;;2.47;;
11328;SDS011;5719;42.714;23.732;2022-10-19T14:22:19;4.90;;;2.95;;
11328;SDS011;5719;42.714;23.732;2022-10-19T14:24:49;7.00;;;2.92;;
11328;SDS011;5719;42.714;23.732;2022-10-19T14:27:17;4.25;;;2.70;;
11328;SDS011;5719;42.714;23.732;2022-10-19T14:29:48;6.13;;;2.67;;
11328;SDS011;5719;42.714;23.732;2022-10-19T14:32:18;4.82;;;3.10;;
11328;SDS011;5719;42.714;23.732;2022-10-19T14:34:48;7.07;;;3.50;;
11328;SDS011;5719;42.714;23.732;2022-10-19T14:37:16;8.90;;;2.95;;
11328;SDS011;5719;42.714;23.732;2022-10-19T14:40:03;10.65;;;2.85;;
11328;SDS011;5719;42.714;23.732;2022-10-19T14:42:40;7.72;;;2.78;;
11328;SDS011;5719;42.714;23.732;2022-10-19T14:45:09;3.40;;;3.10;;
11328;SDS011;5719;42.714;23.732;2022-10-19T14:47:50;7.22;;;3.30;;
11328;SDS011;5719;42.714;23.732;2022-10-19T14:50:19;4.97;;;3.03;;
11328;SDS011;5719;42.714;23.732;2022-10-19T14:52:48;9.73;;;2.70;;
11328;SDS011;5719;42.714;23.732;2022-10-19T14:55:19;9.30;;;3.25;;
11328;SDS011;5719;42.714;23.732;2022-10-19T14:57:48;8.85;;;3.33;;
11328;SDS011;5719;42.714;23.732;2022-10-19T15:00:18;6.07;;;3.10;;
11328;SDS011;5719;42.714;23.732;2022-10-19T15:02:49;5.38;;;3.05;;
11328;SDS011;5719;42.714;23.732;2022-10-19T15:05:23;6.05;;;2.97;;
11328;SDS011;5719;42.714;23.732;2022-10-19T15:07:53;6.75;;;3.78;;
11328;SDS011;5719;42.714;23.732;2022-10-19T15:10:21;9.80;;;3.65;;
11328;SDS011;5719;42.714;23.732;2022-10-19T15:12:51;13.75;;;3.38;;
11328;SDS011;5719;42.714;23.732;2022-10-19T15:15:26;3.70;;;3.00;;
11328;SDS011;5719;42.714;23.732;2022-10-19T15:18:02;2.50;;;2.30;;
11328;SDS011;5719;42.714;23.732;2022-10-19T15:20:30;3.08;;;2.20;;
11328;SDS011;5719;42.714;23.732;2022-10-19T15:22:59;4.00;;;2.50;;
11328;SDS011;5719;42.714;23.732;2022-10-19T15:25:29;8.05;;;2.45;;
11328;SDS011;5719;42.714;23.732;2022-10-19T15:28:19;4.57;;;2.40;;
11328;SDS011;5719;42.714;23.732;2022-10-19T15:30:57;1.98;;;1.80;;
11328;SDS011;5719;42.714;23.732;2022-10-19T15:33:26;3.25;;;2.20;;
11328;SDS011;5719;42.714;23.732;2022-10-19T15:36:02;2.53;;;1.90;;
11328;SDS011;5719;42.714;23.732;2022-10-19T15:38:31;3.78;;;2.05;;
11328;SDS011;5719;42.714;23.732;2022-10-19T15:40:59;3.35;;;2.08;;
11328;SDS011;5719;42.714;23.732;2022-10-19T15:43:34;4.80;;;2.08;;
11328;SDS011;5719;42.714;23.732;2022-10-19T15:46:19;3.70;;;1.80;;
11328;SDS011;5719;42.714;23.732;2022-10-19T15:48:52;2.25;;;1.88;;
11328;SDS011;5719;42.714;23.732;2022-10-19T15:54:14;3.63;;;2.28;;
11328;SDS011;5719;42.714;23.732;2022-10-19T15:56:43;2.78;;;1.70;;
11328;SDS011;5719;42.714;23.732;2022-10-19T15:59:13;3.53;;;1.80;;
11328;SDS011;5719;42.714;23.732;2022-10-19T16:01:41;2.13;;;1.95;;
11328;SDS011;5719;42.714;23.732;2022-10-19T16:04:10;2.83;;;2.22;;
11328;SDS011;5719;42.714;23.732;2022-10-19T16:06:38;1.92;;;1.70;;
11328;SDS011;5719;42.714;23.732;2022-10-19T16:09:07;2.85;;;2.15;;
11328;SDS011;5719;42.714;23.732;2022-10-19T16:11:39;5.07;;;2.38;;
11328;SDS011;5719;42.714;23.732;2022-10-19T16:14:06;6.22;;;2.00;;
11328;SDS011;5719;42.714;23.732;2022-10-19T16:16:33;5.50;;;3.40;;